createdAt,value
2017-04-24T00:00:35.431Z,72.40
2017-04-24T00:01:35.872Z,72.50
2017-04-24T00:02:36.351Z,72.50
2017-04-24T00:03:35.538Z,72.50
2017-04-24T00:04:34.700Z,72.40
2017-04-24T00:05:33.874Z,72.60
2017-04-24T00:06:33.228Z,73.60
2017-04-24T00:07:32.390Z,73.00
2017-04-24T00:08:31.558Z,72.70
2017-04-24T00:09:31.175Z,73.00
2017-04-24T00:10:37.647Z,73.00
2017-04-24T00:11:36.877Z,72.90
2017-04-24T00:12:36.766Z,72.90
2017-04-24T00:13:36.803Z,73.40
2017-04-24T00:14:36.051Z,72.50
2017-04-24T00:15:35.262Z,72.50
2017-04-24T00:16:35.222Z,72.80
2017-04-24T00:17:34.522Z,72.70
2017-04-24T00:18:33.742Z,72.80
2017-04-24T00:19:32.905Z,72.80
2017-04-24T00:20:32.089Z,73.10
2017-04-24T00:21:31.217Z,73.00
2017-04-24T00:22:31.115Z,73.00
2017-04-24T00:23:30.260Z,73.00
2017-04-24T00:24:29.371Z,72.90
2017-04-24T00:25:28.510Z,72.90
2017-04-24T00:26:27.682Z,73.10
2017-04-24T00:27:26.834Z,73.00
2017-04-24T00:28:26.015Z,73.10
2017-04-24T00:29:25.188Z,73.10
2017-04-24T00:30:24.794Z,73.10
2017-04-24T00:31:23.938Z,73.10
2017-04-24T00:32:23.128Z,73.10
2017-04-24T00:33:22.271Z,73.10
2017-04-24T00:34:21.414Z,73.00
2017-04-24T00:35:21.635Z,73.10
2017-04-24T00:36:20.789Z,73.10
2017-04-24T00:37:19.974Z,72.90
2017-04-24T00:38:19.331Z,72.90
2017-04-24T00:39:18.519Z,72.90
2017-04-24T00:40:19.160Z,73.90
2017-04-24T00:41:19.082Z,73.00
2017-04-24T00:42:18.270Z,73.00
2017-04-24T00:43:18.293Z,73.00
2017-04-24T00:44:17.566Z,73.10
2017-04-24T00:45:17.103Z,73.20
2017-04-24T00:46:16.307Z,73.20
2017-04-24T00:47:15.828Z,73.20
2017-04-24T00:48:14.991Z,73.20
2017-04-24T00:49:14.134Z,73.30
2017-04-24T00:50:13.475Z,73.30
2017-04-24T00:51:12.585Z,73.20
2017-04-24T00:52:12.474Z,72.90
2017-04-24T00:53:12.359Z,72.90
2017-04-24T00:54:11.507Z,72.80
2017-04-24T00:55:10.698Z,72.90
2017-04-24T00:56:09.874Z,72.80
2017-04-24T00:57:09.019Z,72.90
2017-04-24T00:58:08.149Z,72.90
2017-04-24T00:59:07.295Z,73.10
2017-04-24T01:00:06.475Z,73.00
2017-04-24T01:02:05.085Z,73.10
2017-04-24T01:03:05.014Z,73.20
2017-04-24T01:04:04.169Z,73.20
2017-04-24T01:05:03.294Z,73.40
2017-04-24T01:06:02.498Z,73.30
2017-04-24T01:07:01.684Z,73.50
2017-04-24T01:08:00.950Z,73.70
2017-04-24T01:09:00.118Z,73.90
2017-04-24T01:09:59.991Z,74.00
2017-04-24T01:10:59.134Z,74.00
2017-04-24T01:11:58.285Z,74.10
2017-04-24T01:12:57.547Z,74.10
2017-04-24T01:13:56.950Z,74.10
2017-04-24T01:14:56.097Z,74.10
2017-04-24T01:15:55.259Z,74.20
2017-04-24T01:16:54.382Z,74.90
2017-04-24T01:17:53.510Z,74.30
2017-04-24T01:18:53.407Z,74.50
2017-04-24T01:19:52.888Z,74.30
2017-04-24T01:20:52.027Z,74.50
2017-04-24T01:21:51.145Z,74.50
2017-04-24T01:22:50.306Z,74.50
2017-04-24T01:23:49.447Z,74.40
2017-04-24T01:24:48.578Z,74.30
2017-04-24T01:25:47.823Z,74.50
2017-04-24T01:26:46.953Z,74.30
2017-04-24T01:27:46.089Z,74.20
2017-04-24T01:28:45.215Z,74.20
2017-04-24T01:29:44.366Z,74.20
2017-04-24T01:30:43.498Z,74.40
2017-04-24T01:31:42.722Z,74.40
2017-04-24T01:32:41.854Z,74.50
2017-04-24T01:33:40.991Z,74.50
2017-04-24T01:34:40.138Z,74.50
2017-04-24T01:35:39.485Z,74.50
2017-04-24T01:36:38.638Z,74.50
2017-04-24T01:37:37.803Z,74.40
2017-04-24T01:38:36.942Z,74.50
2017-04-24T01:39:36.081Z,74.60
2017-04-24T01:40:35.219Z,74.40
2017-04-24T01:41:34.402Z,74.60
2017-04-24T01:42:33.718Z,74.50
2017-04-24T01:43:33.584Z,75.00
2017-04-24T01:44:32.707Z,74.40
2017-04-24T01:45:32.591Z,74.90
2017-04-24T01:46:31.755Z,74.30
2017-04-24T01:47:30.950Z,74.50
2017-04-24T01:48:30.068Z,74.50
2017-04-24T01:49:29.168Z,74.40
2017-04-24T01:50:29.029Z,74.40
2017-04-24T01:51:28.173Z,74.40
2017-04-24T01:52:27.291Z,74.30
2017-04-24T01:53:26.488Z,74.20
2017-04-24T01:54:25.692Z,74.20
2017-04-24T01:55:24.815Z,74.20
2017-04-24T01:56:23.929Z,74.40
2017-04-24T01:57:23.324Z,74.10
2017-04-24T01:58:22.457Z,73.90
2017-04-24T01:59:21.568Z,73.90
2017-04-24T02:00:20.718Z,73.50
2017-04-24T02:01:19.825Z,73.60
2017-04-24T02:02:20.465Z,73.70
2017-04-24T02:03:19.609Z,73.60
2017-04-24T02:04:18.749Z,73.60
2017-04-24T02:05:17.895Z,73.60
2017-04-24T02:06:17.042Z,73.40
2017-04-24T02:07:16.152Z,73.30
2017-04-24T02:08:15.279Z,73.20
2017-04-24T02:09:14.516Z,73.30
2017-04-24T02:10:13.633Z,73.10
2017-04-24T02:11:13.544Z,72.80
2017-04-24T02:12:12.665Z,72.80
2017-04-24T02:13:11.817Z,72.70
2017-04-24T02:14:11.770Z,72.60
2017-04-24T02:15:10.921Z,72.40
2017-04-24T02:16:10.792Z,72.40
2017-04-24T02:17:09.922Z,72.40
2017-04-24T02:18:09.044Z,73.10
2017-04-24T02:19:08.161Z,72.40
2017-04-24T02:20:07.273Z,72.30
2017-04-24T02:21:06.444Z,72.30
2017-04-24T02:22:06.310Z,73.10
2017-04-24T02:23:05.418Z,72.40
2017-04-24T02:24:04.528Z,72.40
2017-04-24T02:25:04.396Z,72.40
2017-04-24T02:26:03.507Z,72.40
2017-04-24T02:27:03.481Z,72.80
2017-04-24T02:28:02.607Z,72.40
2017-04-24T02:29:02.484Z,72.20
2017-04-24T02:30:01.589Z,72.00
2017-04-24T02:31:01.443Z,72.20
2017-04-24T02:32:00.563Z,72.30
2017-04-24T02:32:59.845Z,72.20
2017-04-24T02:33:58.977Z,72.30
2017-04-24T02:34:58.098Z,72.10
2017-04-24T02:35:57.212Z,71.90
2017-04-24T02:36:56.326Z,71.80
2017-04-24T02:37:56.197Z,71.90
2017-04-24T02:38:55.359Z,71.70
2017-04-24T02:39:54.500Z,71.50
2017-04-24T02:40:54.373Z,71.40
2017-04-24T02:41:53.472Z,71.20
2017-04-24T02:42:52.604Z,71.20
2017-04-24T02:43:51.729Z,71.20
2017-04-24T02:44:50.924Z,71.00
2017-04-24T02:45:50.032Z,71.10
2017-04-24T02:46:49.888Z,71.00
2017-04-24T02:47:49.002Z,71.10
2017-04-24T02:48:48.874Z,70.90
2017-04-24T02:49:48.025Z,70.90
2017-04-24T02:50:47.177Z,70.90
2017-04-24T02:51:46.285Z,70.80
2017-04-24T02:52:46.141Z,71.00
2017-04-24T02:53:45.304Z,70.80
2017-04-24T02:54:44.445Z,70.70
2017-04-24T02:55:43.561Z,70.80
2017-04-24T02:56:43.452Z,70.60
2017-04-24T02:57:43.301Z,70.70
2017-04-24T02:58:42.460Z,70.40
2017-04-24T02:59:41.600Z,70.40
2017-04-24T03:00:40.728Z,70.20
2017-04-24T03:01:39.879Z,70.00
2017-04-24T03:02:39.076Z,70.00
2017-04-24T03:03:38.204Z,69.90
2017-04-24T03:04:37.392Z,69.80
2017-04-24T03:05:36.513Z,69.80
2017-04-24T03:06:35.629Z,69.70
2017-04-24T03:07:34.745Z,69.80
2017-04-24T03:08:34.086Z,69.70
2017-04-24T03:09:33.204Z,69.60
2017-04-24T03:10:33.069Z,69.60
2017-04-24T03:11:32.188Z,69.50
2017-04-24T03:12:32.055Z,69.50
2017-04-24T03:13:31.161Z,69.40
2017-04-24T03:14:30.752Z,69.30
2017-04-24T03:15:29.892Z,69.40
2017-04-24T03:16:29.000Z,69.50
2017-04-24T03:17:28.122Z,69.30
2017-04-24T03:18:27.224Z,69.30
2017-04-24T03:19:27.089Z,69.10
2017-04-24T03:20:26.270Z,69.10
2017-04-24T03:21:25.392Z,69.10
2017-04-24T03:22:25.253Z,69.00
2017-04-24T03:23:24.365Z,68.90
2017-04-24T03:24:23.533Z,69.00
2017-04-24T03:25:22.640Z,69.00
2017-04-24T03:26:22.025Z,68.90
2017-04-24T03:27:21.160Z,68.80
2017-04-24T03:28:20.273Z,68.80
2017-04-24T03:29:19.388Z,68.60
2017-04-24T03:30:18.500Z,68.50
2017-04-24T03:31:18.430Z,68.50
2017-04-24T03:32:17.852Z,68.50
2017-04-24T03:33:16.973Z,68.50
2017-04-24T03:34:16.106Z,68.50
2017-04-24T03:35:15.242Z,68.50
2017-04-24T03:36:14.360Z,68.50
2017-04-24T03:37:13.472Z,68.50
2017-04-24T03:38:12.638Z,68.30
2017-04-24T03:39:11.761Z,68.80
2017-04-24T03:40:10.878Z,69.00
2017-04-24T03:41:10.210Z,68.30
2017-04-24T03:42:09.495Z,68.20
2017-04-24T03:43:08.627Z,68.40
2017-04-24T03:44:07.809Z,68.30
2017-04-24T03:45:06.925Z,68.40
2017-04-24T03:46:06.821Z,67.80
2017-04-24T03:47:05.928Z,68.30
2017-04-24T03:48:05.793Z,68.30
2017-04-24T03:49:04.904Z,68.30
2017-04-24T03:51:03.513Z,68.30
2017-04-24T03:52:02.653Z,68.30
2017-04-24T03:53:01.765Z,68.30
2017-04-24T03:54:01.620Z,68.40
2017-04-24T03:55:00.724Z,68.20
2017-04-24T03:55:59.882Z,68.20
2017-04-24T03:56:58.991Z,68.40
2017-04-24T03:57:58.108Z,68.50
2017-04-24T03:58:58.054Z,68.40
2017-04-24T03:59:57.551Z,68.30
2017-04-24T04:00:56.693Z,68.30
2017-04-24T04:01:57.214Z,67.90
2017-04-24T04:02:57.117Z,68.40
2017-04-24T04:03:57.009Z,69.00
2017-04-24T04:04:56.157Z,68.30
2017-04-24T04:05:55.320Z,68.30
2017-04-24T04:06:54.468Z,68.20
2017-04-24T04:08:53.089Z,68.20
2017-04-24T04:09:52.288Z,68.40
2017-04-24T04:10:51.439Z,68.20
2017-04-24T04:11:51.325Z,68.80
2017-04-24T04:12:50.475Z,68.20
2017-04-24T04:13:49.659Z,68.20
2017-04-24T04:14:48.812Z,68.20
2017-04-24T04:15:48.697Z,68.20
2017-04-24T04:16:47.840Z,68.10
2017-04-24T04:17:46.985Z,68.20
2017-04-24T04:18:46.877Z,68.30
2017-04-24T04:19:46.056Z,68.30
2017-04-24T04:20:45.205Z,68.30
2017-04-24T04:21:44.344Z,68.30
2017-04-24T04:22:43.476Z,68.30
2017-04-24T04:23:42.616Z,68.30
2017-04-24T04:24:41.761Z,68.10
2017-04-24T04:25:40.954Z,68.00
2017-04-24T04:26:40.104Z,68.00
2017-04-24T04:27:39.249Z,68.10
2017-04-24T04:28:38.389Z,68.00
2017-04-24T04:29:37.530Z,68.00
2017-04-24T04:30:36.675Z,68.00
2017-04-24T04:31:35.864Z,68.10
2017-04-24T04:32:35.021Z,68.00
2017-04-24T04:33:34.185Z,68.90
2017-04-24T04:34:33.329Z,68.00
2017-04-24T04:35:32.480Z,68.10
2017-04-24T04:36:32.408Z,68.10
2017-04-24T04:37:31.656Z,68.00
2017-04-24T04:38:30.801Z,67.90
2017-04-24T04:39:29.951Z,67.90
2017-04-24T04:40:29.100Z,67.90
2017-04-24T04:41:28.245Z,67.90
2017-04-24T04:42:27.400Z,68.10
2017-04-24T04:43:27.338Z,68.00
2017-04-24T04:44:26.504Z,67.90
2017-04-24T04:45:25.664Z,67.80
2017-04-24T04:46:24.796Z,67.90
2017-04-24T04:47:23.960Z,67.80
2017-04-24T04:48:23.846Z,67.80
2017-04-24T04:49:23.428Z,67.70
2017-04-24T04:50:22.568Z,67.70
2017-04-24T04:51:21.717Z,67.70
2017-04-24T04:52:20.867Z,67.50
2017-04-24T04:53:20.004Z,67.60
2017-04-24T04:54:19.886Z,67.70
2017-04-24T04:55:19.048Z,67.60
2017-04-24T04:56:18.155Z,67.50
2017-04-24T04:57:17.288Z,67.50
2017-04-24T04:58:16.404Z,67.70
2017-04-24T04:59:15.517Z,67.30
2017-04-24T05:00:14.635Z,67.20
2017-04-24T05:01:13.814Z,67.20
2017-04-24T05:02:13.672Z,67.30
2017-04-24T05:03:12.801Z,67.10
2017-04-24T05:04:12.662Z,67.50
2017-04-24T05:05:11.789Z,67.20
2017-04-24T05:06:10.913Z,67.20
2017-04-24T05:07:10.246Z,67.10
2017-04-24T05:08:09.356Z,67.00
2017-04-24T05:09:09.237Z,67.00
2017-04-24T05:10:08.398Z,66.70
2017-04-24T05:11:07.532Z,66.60
2017-04-24T05:12:07.392Z,66.70
2017-04-24T05:13:06.544Z,66.50
2017-04-24T05:14:05.660Z,66.40
2017-04-24T05:15:04.805Z,66.50
2017-04-24T05:16:03.917Z,66.30
2017-04-24T05:17:03.029Z,66.50
2017-04-24T05:18:02.136Z,66.20
2017-04-24T05:19:02.435Z,66.20
2017-04-24T05:20:01.549Z,66.20
2017-04-24T05:21:01.432Z,66.20
2017-04-24T05:22:00.569Z,65.90
2017-04-24T05:22:59.692Z,65.80
2017-04-24T05:23:58.829Z,65.40
2017-04-24T05:24:58.737Z,65.30
2017-04-24T05:25:57.855Z,65.70
2017-04-24T05:26:56.969Z,65.30
2017-04-24T05:27:56.097Z,65.40
2017-04-24T05:28:55.225Z,65.40
2017-04-24T05:29:54.352Z,65.40
2017-04-24T05:30:54.637Z,65.50
2017-04-24T05:31:53.756Z,65.20
2017-04-24T05:32:53.622Z,64.70
2017-04-24T05:33:52.739Z,64.60
2017-04-24T05:34:52.612Z,64.50
2017-04-24T05:35:51.731Z,64.20
2017-04-24T05:36:51.664Z,64.20
2017-04-24T05:37:50.789Z,64.00
2017-04-24T05:38:49.913Z,63.50
2017-04-24T05:39:49.785Z,63.40
2017-04-24T05:40:48.926Z,63.20
2017-04-24T05:41:48.064Z,63.10
2017-04-24T05:42:47.225Z,62.90
2017-04-24T05:43:46.356Z,62.50
2017-04-24T05:44:46.240Z,62.60
2017-04-24T05:45:45.353Z,62.20
2017-04-24T05:46:45.233Z,62.30
2017-04-24T05:47:44.346Z,62.20
2017-04-24T05:48:44.298Z,62.10
2017-04-24T05:49:43.404Z,61.80
2017-04-24T05:50:42.507Z,62.10
2017-04-24T05:51:41.657Z,61.80
2017-04-24T05:52:40.784Z,61.60
2017-04-24T05:53:39.908Z,61.40
2017-04-24T05:54:39.448Z,61.20
2017-04-24T05:55:38.604Z,61.10
2017-04-24T05:56:37.764Z,60.90
2017-04-24T05:57:36.933Z,60.60
2017-04-24T05:58:36.828Z,60.30
2017-04-24T05:59:35.981Z,60.40
2017-04-24T06:00:35.285Z,60.30
2017-04-24T06:01:34.433Z,60.20
2017-04-24T06:02:33.584Z,60.10
2017-04-24T06:03:33.483Z,60.00
2017-04-24T06:04:32.635Z,60.40
2017-04-24T06:05:31.857Z,60.30
2017-04-24T06:06:31.240Z,59.80
2017-04-24T06:07:30.392Z,59.50
2017-04-24T06:08:29.541Z,59.50
2017-04-24T06:09:29.457Z,59.30
2017-04-24T06:10:28.616Z,59.40
2017-04-24T06:11:27.786Z,59.30
2017-04-24T06:12:26.980Z,59.30
2017-04-24T06:13:26.122Z,59.30
2017-04-24T06:14:25.269Z,59.10
2017-04-24T06:15:25.196Z,58.50
2017-04-24T06:16:25.085Z,58.40
2017-04-24T06:17:24.239Z,58.40
2017-04-24T06:18:23.593Z,58.50
2017-04-24T06:19:22.737Z,58.50
2017-04-24T06:20:21.881Z,58.10
2017-04-24T06:21:21.016Z,58.10
2017-04-24T06:22:20.153Z,57.60
2017-04-24T06:23:19.305Z,57.60
2017-04-24T06:24:19.237Z,57.10
2017-04-24T06:25:18.411Z,57.00
2017-04-24T06:26:17.568Z,56.50
2017-04-24T06:27:17.098Z,55.70
2017-04-24T06:28:16.251Z,55.90
2017-04-24T06:29:15.418Z,55.80
2017-04-24T06:30:14.564Z,55.30
2017-04-24T06:31:13.698Z,55.00
2017-04-24T06:32:12.849Z,54.80
2017-04-24T06:33:12.044Z,54.80
2017-04-24T06:34:11.221Z,54.10
2017-04-24T06:35:10.364Z,54.30
2017-04-24T06:36:10.276Z,53.70
2017-04-24T06:37:10.167Z,53.90
2017-04-24T06:38:09.333Z,53.70
2017-04-24T06:39:08.735Z,53.40
2017-04-24T06:40:07.879Z,52.80
2017-04-24T06:41:07.024Z,52.60
2017-04-24T06:42:06.181Z,52.80
2017-04-24T06:43:05.337Z,52.20
2017-04-24T06:44:04.496Z,52.30
2017-04-24T06:45:04.469Z,51.70
2017-04-24T06:46:03.628Z,51.70
2017-04-24T06:47:02.760Z,51.70
2017-04-24T06:48:01.897Z,51.80
2017-04-24T06:49:01.068Z,51.90
2017-04-24T06:50:00.205Z,51.50
2017-04-24T06:50:59.493Z,51.30
2017-04-24T06:51:59.408Z,51.10
2017-04-24T06:52:58.558Z,50.20
2017-04-24T06:53:57.719Z,50.40
2017-04-24T06:54:56.894Z,50.00
2017-04-24T06:55:56.751Z,50.10
2017-04-24T06:56:55.989Z,49.60
2017-04-24T06:57:55.109Z,48.70
2017-04-24T06:58:54.296Z,48.60
2017-04-24T06:59:53.405Z,48.30
2017-04-24T07:00:52.517Z,47.90
2017-04-24T07:01:51.723Z,48.10
2017-04-24T07:03:00.913Z,46.90
2017-04-24T07:04:00.045Z,46.60
2017-04-24T07:04:59.154Z,47.00
2017-04-24T07:05:58.284Z,46.30
2017-04-24T07:06:57.401Z,46.20
2017-04-24T07:07:56.521Z,46.50
2017-04-24T07:08:55.745Z,46.10
2017-04-24T07:09:55.300Z,46.60
2017-04-24T07:10:54.429Z,46.70
2017-04-24T07:11:53.537Z,46.60
2017-04-24T07:12:53.390Z,46.60
2017-04-24T07:13:52.524Z,45.60
2017-04-24T07:14:52.456Z,46.00
2017-04-24T07:15:51.565Z,46.10
2017-04-24T07:16:50.697Z,45.50
2017-04-24T07:17:50.941Z,45.20
2017-04-24T07:18:50.124Z,45.90
2017-04-24T07:19:49.240Z,45.40
2017-04-24T07:20:48.404Z,45.60
2017-04-24T07:21:47.548Z,45.00
2017-04-24T07:22:46.682Z,45.00
2017-04-24T07:23:45.809Z,45.00
2017-04-24T07:24:44.931Z,45.00
2017-04-24T07:25:44.061Z,45.10
2017-04-24T07:26:43.205Z,45.00
2017-04-24T07:27:42.331Z,45.10
2017-04-24T07:28:41.471Z,45.00
2017-04-24T07:29:41.333Z,45.10
2017-04-24T07:30:40.453Z,45.10
2017-04-24T07:31:40.312Z,45.10
2017-04-24T07:32:39.728Z,45.10
2017-04-24T07:33:38.865Z,45.10
2017-04-24T07:34:37.998Z,45.10
2017-04-24T07:35:37.109Z,45.10
2017-04-24T07:36:36.970Z,45.20
2017-04-24T07:37:36.100Z,44.50
2017-04-24T07:38:35.975Z,44.00
2017-04-24T07:39:35.102Z,43.30
2017-04-24T07:40:34.960Z,42.60
2017-04-24T07:41:34.145Z,42.70
2017-04-24T07:42:33.348Z,42.10
2017-04-24T07:43:32.460Z,41.90
2017-04-24T07:44:32.496Z,41.50
2017-04-24T07:45:31.645Z,40.70
2017-04-24T07:46:30.761Z,40.30
2017-04-24T07:47:29.897Z,39.20
2017-04-24T07:48:29.016Z,37.70
2017-04-24T07:49:28.885Z,37.20
2017-04-24T07:50:28.044Z,37.00
2017-04-24T07:51:27.158Z,36.90
2017-04-24T07:52:26.272Z,37.00
2017-04-24T07:53:26.165Z,37.10
2017-04-24T07:54:25.293Z,37.10
2017-04-24T07:55:24.424Z,36.50
2017-04-24T07:56:23.710Z,36.10
2017-04-24T07:57:22.821Z,36.30
2017-04-24T07:58:22.693Z,37.30
2017-04-24T07:59:21.808Z,37.20
2017-04-24T08:00:21.721Z,37.10
2017-04-24T08:01:21.584Z,36.90
2017-04-24T08:02:21.602Z,36.30
2017-04-24T08:03:20.737Z,36.00
2017-04-24T08:04:19.860Z,36.00
2017-04-24T08:05:18.973Z,35.70
2017-04-24T08:06:18.076Z,35.60
2017-04-24T08:07:17.936Z,36.20
2017-04-24T08:08:17.113Z,35.20
2017-04-24T08:09:16.266Z,35.30
2017-04-24T08:10:15.385Z,35.40
2017-04-24T08:11:14.512Z,35.00
2017-04-24T08:12:13.661Z,34.60
2017-04-24T08:13:12.773Z,34.20
2017-04-24T08:14:12.217Z,34.50
2017-04-24T08:15:11.360Z,34.80
2017-04-24T08:16:10.479Z,34.90
2017-04-24T08:17:09.621Z,35.10
2017-04-24T08:18:08.760Z,35.00
2017-04-24T08:19:07.898Z,34.60
2017-04-24T08:20:07.289Z,34.50
2017-04-24T08:21:06.420Z,34.20
2017-04-24T08:22:05.548Z,34.30
2017-04-24T08:23:04.752Z,34.60
2017-04-24T08:24:03.865Z,34.90
2017-04-24T08:25:03.737Z,35.30
2017-04-24T08:26:02.909Z,34.40
2017-04-24T08:27:02.028Z,34.20
2017-04-24T08:28:01.157Z,34.70
2017-04-24T08:29:00.281Z,34.50
2017-04-24T08:29:59.404Z,34.20
2017-04-24T08:30:59.281Z,33.90
2017-04-24T08:31:59.081Z,34.20
2017-04-24T08:32:58.218Z,34.00
2017-04-24T08:33:57.361Z,34.10
2017-04-24T08:34:56.484Z,33.90
2017-04-24T08:35:55.604Z,34.30
2017-04-24T08:36:54.724Z,33.80
2017-04-24T08:37:54.109Z,33.70
2017-04-24T08:38:53.237Z,33.20
2017-04-24T08:39:52.356Z,33.90
2017-04-24T08:40:51.489Z,33.10
2017-04-24T08:41:51.356Z,34.00
2017-04-24T08:42:50.475Z,32.70
2017-04-24T08:43:50.398Z,33.20
2017-04-24T08:44:49.524Z,32.90
2017-04-24T08:45:48.653Z,32.80
2017-04-24T08:46:48.516Z,33.20
2017-04-24T08:47:47.626Z,33.10
2017-04-24T08:48:46.749Z,32.80
2017-04-24T08:49:45.941Z,33.80
2017-04-24T08:50:45.073Z,32.90
2017-04-24T08:51:44.185Z,32.80
2017-04-24T08:52:43.306Z,33.00
2017-04-24T08:53:42.448Z,32.70
2017-04-24T08:54:41.553Z,32.40
2017-04-24T08:55:41.636Z,32.60
2017-04-24T08:56:40.785Z,32.70
2017-04-24T08:57:39.948Z,32.60
2017-04-24T08:58:39.817Z,33.00
2017-04-24T08:59:38.952Z,33.10
2017-04-24T09:00:38.065Z,32.90
2017-04-24T09:01:37.234Z,32.50
2017-04-24T09:02:36.365Z,32.70
2017-04-24T09:03:35.497Z,33.10
2017-04-24T09:04:34.615Z,32.20
2017-04-24T09:05:34.045Z,32.40
2017-04-24T09:06:33.157Z,32.30
2017-04-24T09:07:32.317Z,32.90
2017-04-24T09:08:31.429Z,32.80
2017-04-24T09:09:30.548Z,33.00
2017-04-24T09:10:29.673Z,32.50
2017-04-24T09:11:28.788Z,32.50
2017-04-24T09:12:28.666Z,32.80
2017-04-24T09:13:27.837Z,32.90
2017-04-24T09:14:26.985Z,32.80
2017-04-24T09:15:26.120Z,33.30
2017-04-24T09:16:25.225Z,33.30
2017-04-24T09:17:25.082Z,33.30
2017-04-24T09:18:24.218Z,33.00
2017-04-24T09:19:24.257Z,33.00
2017-04-24T09:20:23.371Z,33.60
2017-04-24T09:21:22.494Z,33.30
2017-04-24T09:22:22.367Z,33.20
2017-04-24T09:23:21.479Z,33.50
2017-04-24T09:24:21.361Z,33.70
2017-04-24T09:25:20.516Z,33.40
2017-04-24T09:26:19.644Z,33.20
2017-04-24T09:27:18.757Z,33.00
2017-04-24T09:28:18.656Z,32.60
2017-04-24T09:29:18.515Z,32.90
2017-04-24T09:30:17.626Z,33.00
2017-04-24T09:31:16.788Z,33.20
2017-04-24T09:32:15.898Z,33.00
2017-04-24T09:33:15.000Z,33.20
2017-04-24T09:34:14.866Z,32.60
2017-04-24T09:35:13.972Z,32.90
2017-04-24T09:36:13.078Z,33.60
2017-04-24T09:37:12.996Z,33.50
2017-04-24T09:38:12.114Z,33.50
2017-04-24T09:39:11.233Z,33.60
2017-04-24T09:40:10.357Z,33.20
2017-04-24T09:41:09.484Z,33.60
2017-04-24T09:42:08.608Z,33.20
2017-04-24T09:43:08.590Z,32.60
2017-04-24T09:44:07.704Z,33.00
2017-04-24T09:45:07.557Z,33.30
2017-04-24T09:46:06.689Z,33.00
2017-04-24T09:47:06.536Z,33.60
2017-04-24T09:48:05.653Z,32.70
2017-04-24T09:49:04.949Z,32.70
2017-04-24T09:50:04.057Z,33.40
2017-04-24T09:51:03.921Z,33.50
2017-04-24T09:52:03.047Z,32.80
2017-04-24T09:53:03.000Z,32.90
2017-04-24T09:54:02.144Z,33.40
2017-04-24T09:55:02.420Z,32.70
2017-04-24T09:56:01.564Z,33.00
2017-04-24T09:57:00.696Z,33.70
2017-04-24T09:57:59.861Z,33.00
2017-04-24T09:58:59.004Z,32.90
2017-04-24T09:59:58.899Z,33.40
2017-04-24T10:00:58.904Z,34.20
2017-04-24T10:01:58.052Z,34.40
2017-04-24T10:02:57.205Z,34.50
2017-04-24T10:03:56.353Z,34.40
2017-04-24T10:04:55.492Z,33.60
2017-04-24T10:05:54.636Z,33.50
2017-04-24T10:06:53.775Z,33.50
2017-04-24T10:07:52.914Z,33.40
2017-04-24T10:08:53.017Z,34.30
2017-04-24T10:09:52.309Z,33.80
2017-04-24T10:10:52.369Z,32.80
2017-04-24T10:11:51.608Z,33.30
2017-04-24T10:12:50.733Z,33.10
2017-04-24T10:13:49.845Z,32.70
2017-04-24T10:14:48.964Z,31.70
2017-04-24T10:15:48.076Z,31.70
2017-04-24T10:16:47.400Z,31.80
2017-04-24T10:17:46.527Z,31.70
2017-04-24T10:18:45.646Z,31.70
2017-04-24T10:19:44.737Z,31.60
2017-04-24T10:20:43.852Z,31.70
2017-04-24T10:21:43.158Z,31.10
2017-04-24T10:22:42.265Z,31.60
2017-04-24T10:23:41.377Z,31.50
2017-04-24T10:24:40.493Z,31.70
2017-04-24T10:25:39.657Z,31.40
2017-04-24T10:26:38.785Z,31.40
2017-04-24T10:27:38.077Z,31.40
2017-04-24T10:28:37.196Z,31.30
2017-04-24T10:29:37.040Z,32.00
2017-04-24T10:30:36.149Z,32.80
2017-04-24T10:31:35.265Z,32.30
2017-04-24T10:32:34.387Z,31.80
2017-04-24T10:33:34.077Z,32.70
2017-04-24T10:34:33.332Z,33.90
2017-04-24T10:35:32.655Z,33.30
2017-04-24T10:36:31.765Z,33.60
2017-04-24T10:37:30.910Z,32.00
2017-04-24T10:38:30.765Z,31.70
2017-04-24T10:39:29.920Z,32.20
2017-04-24T10:40:29.045Z,32.40
2017-04-24T10:41:28.159Z,32.00
2017-04-24T10:42:27.273Z,32.40
2017-04-24T10:43:26.395Z,32.60
2017-04-24T10:44:25.540Z,32.50
2017-04-24T10:45:24.704Z,32.60
2017-04-24T10:46:23.823Z,32.90
2017-04-24T10:47:22.944Z,33.10
2017-04-24T10:48:22.060Z,33.50
2017-04-24T10:49:21.162Z,33.60
2017-04-24T10:50:21.016Z,33.30
2017-04-24T10:51:20.393Z,33.60
2017-04-24T10:52:19.512Z,33.70
2017-04-24T10:53:18.620Z,34.10
2017-04-24T10:54:18.508Z,35.20
2017-04-24T10:55:17.625Z,34.90
2017-04-24T10:56:17.476Z,34.20
2017-04-24T10:57:16.633Z,34.30
2017-04-24T10:58:15.821Z,34.90
2017-04-24T10:59:14.936Z,34.90
2017-04-24T11:00:14.085Z,34.90
2017-04-24T11:01:13.940Z,34.90
2017-04-24T11:02:13.084Z,35.00
2017-04-24T11:03:12.427Z,34.20
2017-04-24T11:04:12.277Z,33.70
2017-04-24T11:05:12.415Z,33.10
2017-04-24T11:06:12.294Z,33.90
2017-04-24T11:07:12.488Z,34.30
2017-04-24T11:08:12.405Z,33.90
2017-04-24T11:09:12.528Z,34.00
2017-04-24T11:10:13.225Z,33.90
2017-04-24T11:11:14.530Z,34.00
2017-04-24T11:12:15.875Z,33.40
2017-04-24T11:13:16.587Z,34.40
2017-04-24T11:14:18.251Z,33.40
2017-04-24T11:15:19.166Z,33.70
2017-04-24T11:16:19.942Z,34.40
2017-04-24T11:17:19.826Z,34.50
2017-04-24T11:18:20.535Z,33.20
2017-04-24T11:20:21.347Z,33.20
2017-04-24T11:21:21.291Z,33.10
2017-04-24T11:22:21.292Z,33.10
2017-04-24T11:23:22.120Z,33.60
2017-04-24T11:24:22.249Z,33.50
2017-04-24T11:25:22.207Z,32.90
2017-04-24T11:26:23.487Z,33.10
2017-04-24T11:27:25.997Z,32.80
2017-04-24T11:28:26.690Z,33.40
2017-04-24T11:29:26.692Z,32.90
2017-04-24T11:30:28.730Z,32.70
2017-04-24T11:31:29.170Z,32.50
2017-04-24T11:32:28.428Z,33.00
2017-04-24T11:34:27.957Z,33.50
2017-04-24T11:35:27.092Z,32.20
2017-04-24T11:36:26.228Z,32.30
2017-04-24T11:37:25.443Z,32.30
2017-04-24T11:38:24.710Z,32.30
2017-04-24T11:39:23.907Z,32.20
2017-04-24T11:40:23.057Z,32.50
2017-04-24T11:41:22.958Z,32.00
2017-04-24T11:42:22.849Z,32.90
2017-04-24T11:43:22.004Z,32.70
2017-04-24T11:44:21.199Z,33.10
2017-04-24T11:45:20.384Z,33.10
2017-04-24T11:46:19.589Z,33.00
2017-04-24T11:47:18.775Z,32.90
2017-04-24T11:48:17.966Z,33.50
2017-04-24T11:49:17.138Z,33.20
2017-04-24T11:50:17.873Z,33.50
2017-04-24T11:51:17.005Z,33.10
2017-04-24T11:52:16.145Z,33.80
2017-04-24T11:53:15.265Z,33.60
2017-04-24T11:54:15.134Z,32.70
2017-04-24T11:55:14.283Z,32.60
2017-04-24T11:56:13.616Z,32.60
2017-04-24T11:57:12.745Z,31.00
2017-04-24T11:58:11.878Z,31.20
2017-04-24T11:59:11.018Z,31.60
2017-04-24T12:00:10.148Z,32.10
2017-04-24T12:01:09.298Z,32.40
2017-04-24T12:02:08.487Z,32.90
2017-04-24T12:03:07.616Z,32.50
2017-04-24T12:04:06.732Z,32.50
2017-04-24T12:05:06.592Z,32.10
2017-04-24T12:06:05.748Z,31.60
2017-04-24T12:07:05.196Z,32.30
2017-04-24T12:08:04.347Z,31.50
2017-04-24T12:09:03.588Z,31.00
2017-04-24T12:10:03.461Z,31.90
2017-04-24T12:11:02.585Z,31.40
2017-04-24T12:12:02.489Z,31.00
2017-04-24T12:13:02.568Z,31.30
2017-04-24T12:14:01.863Z,30.10
2017-04-24T12:15:00.981Z,30.10
2017-04-24T12:16:00.828Z,30.40
2017-04-24T12:16:59.956Z,30.80
2017-04-24T12:17:59.075Z,31.00
2017-04-24T12:18:58.215Z,30.50
2017-04-24T12:19:57.338Z,30.30
2017-04-24T12:20:56.451Z,30.30
2017-04-24T12:21:55.566Z,30.10
2017-04-24T12:22:54.677Z,30.20
2017-04-24T12:23:54.875Z,30.60
2017-04-24T12:24:54.036Z,30.30
2017-04-24T12:25:53.145Z,30.20
2017-04-24T12:26:52.262Z,30.20
2017-04-24T12:27:52.129Z,30.50
2017-04-24T12:28:51.277Z,30.10
2017-04-24T12:29:50.401Z,29.90
2017-04-24T12:30:49.564Z,30.00
2017-04-24T12:31:52.904Z,29.50
2017-04-24T12:32:52.753Z,29.70
2017-04-24T12:33:51.928Z,29.80
2017-04-24T12:34:51.058Z,30.00
2017-04-24T12:35:50.204Z,29.70
2017-04-24T12:36:49.332Z,30.00
2017-04-24T12:37:48.454Z,29.80
2017-04-24T12:38:47.553Z,29.80
2017-04-24T12:39:46.674Z,30.10
2017-04-24T12:40:45.872Z,30.00
2017-04-24T12:41:45.069Z,30.10
2017-04-24T12:42:44.209Z,29.90
2017-04-24T12:43:43.394Z,29.60
2017-04-24T12:44:42.516Z,29.70
2017-04-24T12:45:41.705Z,29.70
2017-04-24T12:46:40.840Z,29.30
2017-04-24T12:47:40.042Z,29.40
2017-04-24T12:48:39.165Z,29.40
2017-04-24T12:49:38.280Z,29.40